Time;durP1;ratioP1;P1;durP2;ratioP2;P2;SDS_P1;SDS_P2;PMS_P1;PMS_P2;Temp;Humidity;BMP_temperature;BMP_pressure;BME280_temperature;BME280_humidity;BME280_pressure;Samples;Min_cycle;Max_cycle;Signal;HPM_P1;HPM_P2
2022/01/18 03:46:11;;;;;;;18.42;3.88;;;3.40;98.80;;;;;;5392029;24;20268;-82
2022/01/18 03:48:38;;;;;;;9.73;2.80;;;3.40;98.70;;;;;;4768562;30;20039;-83
2022/01/18 03:51:07;;;;;;;17.13;3.28;;;3.40;98.60;;;;;;4768790;30;20039;-82
2022/01/18 03:53:33;;;;;;;21.08;3.63;;;3.40;98.50;;;;;;4798766;30;20114;-82
2022/01/18 03:55:59;;;;;;;12.38;3.10;;;3.40;98.40;;;;;;4783519;30;20027;-84
2022/01/18 03:58:25;;;;;;;18.38;3.75;;;3.40;98.30;;;;;;4784021;30;20071;-82
2022/01/18 04:00:52;;;;;;;21.75;3.95;;;3.40;98.00;;;;;;4768808;30;20031;-82
2022/01/18 04:03:18;;;;;;;22.30;3.88;;;3.40;97.90;;;;;;4798563;30;20038;-82
2022/01/18 04:05:44;;;;;;;14.43;3.83;;;3.40;97.80;;;;;;4798399;30;20039;-83
2022/01/18 04:08:10;;;;;;;23.02;3.50;;;3.40;97.40;;;;;;4798326;30;20042;-82
2022/01/18 04:10:36;;;;;;;21.33;3.40;;;3.40;97.30;;;;;;4754005;30;20047;-82
2022/01/18 04:13:02;;;;;;;20.40;3.38;;;3.40;97.10;;;;;;4783430;30;20027;-82
2022/01/18 04:15:29;;;;;;;11.63;4.68;;;3.40;97.20;;;;;;4783501;30;20035;-83
2022/01/18 04:26:01;;;;;;;16.52;3.60;;;3.30;96.20;;;;;;4797862;30;20102;-82
2022/01/18 04:31:04;;;;;;;17.38;3.65;;;3.30;96.00;;;;;;4799883;30;20039;-82
2022/01/18 04:33:31;;;;;;;15.85;3.65;;;3.30;95.90;;;;;;4784204;30;20030;-82
2022/01/18 04:35:56;;;;;;;13.43;3.20;;;3.30;96.00;;;;;;4798558;30;20254;-82
2022/01/18 04:38:22;;;;;;;22.52;3.28;;;3.30;95.60;;;;;;4768318;30;20043;-81
2022/01/18 04:40:49;;;;;;;12.20;3.17;;;3.20;95.60;;;;;;4783136;30;20039;-82
2022/01/18 04:43:39;;;;;;;16.08;3.38;;;3.30;95.70;;;;;;4799159;30;20031;-82
2022/01/18 04:48:50;;;;;;;21.77;4.97;;;3.20;95.20;;;;;;4780907;30;20099;-83
2022/01/18 04:51:17;;;;;;;24.65;4.60;;;3.20;95.00;;;;;;4768135;30;20067;-83
2022/01/18 04:53:51;;;;;;;13.98;3.53;;;3.20;95.10;;;;;;4782872;30;20229;-82
2022/01/18 04:56:26;;;;;;;18.40;4.07;;;3.20;94.80;;;;;;4797938;30;20149;-82
2022/01/18 04:58:52;;;;;;;26.25;3.53;;;3.30;94.90;;;;;;4783867;30;20042;-82
2022/01/18 05:01:18;;;;;;;18.52;3.58;;;3.20;94.50;;;;;;4753257;30;20230;-82
2022/01/18 05:03:44;;;;;;;22.50;4.30;;;3.30;94.60;;;;;;4797602;30;20034;-82
2022/01/18 05:06:14;;;;;;;13.60;3.30;;;3.30;94.70;;;;;;4782754;30;20041;-81
2022/01/18 05:08:40;;;;;;;16.40;3.55;;;3.20;94.60;;;;;;4782302;30;20043;-82
2022/01/18 05:11:09;;;;;;;17.27;3.50;;;3.30;94.70;;;;;;4779470;30;20085;-81
2022/01/18 05:22:56;;;;;;;28.27;3.70;;;3.20;94.80;;;;;;4784905;30;20316;-82
2022/01/18 05:24:18;;;;;;;21.33;3.78;;;3.30;94.80;;;;;;4797330;30;20057;-82
2022/01/18 05:26:43;;;;;;;26.25;3.92;;;3.30;94.90;;;;;;4782545;30;20039;-82
2022/01/18 05:29:09;;;;;;;22.52;4.07;;;3.20;94.90;;;;;;4751965;30;20335;-82
2022/01/18 05:31:35;;;;;;;24.15;4.38;;;3.20;94.90;;;;;;4752672;30;20355;-83
2022/01/18 05:34:01;;;;;;;19.48;4.15;;;3.20;94.90;;;;;;4752771;30;20327;-82
2022/01/18 05:36:28;;;;;;;20.70;4.70;;;3.30;95.10;;;;;;4779266;30;20035;-82
2022/01/18 05:38:53;;;;;;;;;;;3.30;95.10;;;;;;4779482;30;20035;-82
2022/01/18 05:41:19;;;;;;;24.60;4.57;;;3.30;95.10;;;;;;4796884;30;20020;-83
2022/01/18 05:43:45;;;;;;;20.08;3.72;;;3.30;95.10;;;;;;4752411;30;20039;-81
2022/01/18 05:46:11;;;;;;;25.92;4.40;;;3.30;95.20;;;;;;4778607;30;20065;-81
2022/01/18 05:48:37;;;;;;;17.48;3.90;;;3.30;95.20;;;;;;4780883;30;20031;-82
2022/01/18 05:51:03;;;;;;;24.17;4.22;;;3.30;95.20;;;;;;4781381;30;20039;-82
2022/01/18 05:53:31;;;;;;;15.48;3.78;;;3.30;95.10;;;;;;4765587;30;20278;-82
2022/01/18 05:55:58;;;;;;;24.48;4.50;;;3.30;95.20;;;;;;4782074;30;20065;-81
2022/01/18 05:58:24;;;;;;;24.55;4.80;;;3.30;95.10;;;;;;4807193;29;20037;-82
2022/01/18 06:00:53;;;;;;;17.88;3.50;;;3.40;95.10;;;;;;4763874;30;20039;-81
2022/01/18 06:03:53;;;;;;;19.67;4.05;;;3.40;95.10;;;;;;4771792;30;20338;-81
2022/01/18 06:08:56;;;;;;;20.75;3.72;;;3.40;94.90;;;;;;4784196;30;20100;-82
2022/01/18 06:11:22;;;;;;;24.80;3.65;;;3.40;94.90;;;;;;4763814;30;20035;-81
2022/01/18 06:13:48;;;;;;;25.55;3.83;;;3.40;94.80;;;;;;4749482;30;20050;-82
2022/01/18 06:16:14;;;;;;;31.92;4.20;;;3.40;94.90;;;;;;4778528;30;20434;-81
2022/01/18 06:18:39;;;;;;;35.55;4.78;;;3.40;94.90;;;;;;4773883;30;20265;-82
2022/01/18 06:21:05;;;;;;;19.58;5.05;;;3.40;94.70;;;;;;4781734;30;20350;-82
2022/01/18 06:23:31;;;;;;;24.85;4.40;;;3.40;94.80;;;;;;4781720;30;20339;-82
2022/01/18 06:25:58;;;;;;;23.67;4.80;;;3.30;94.70;;;;;;4796564;30;20319;-82
2022/01/18 06:28:24;;;;;;;30.00;5.30;;;3.40;94.80;;;;;;4781234;30;20035;-82
2022/01/18 06:30:50;;;;;;;19.35;6.78;;;3.40;94.80;;;;;;4781344;30;20121;-82
2022/01/18 06:33:15;;;;;;;25.05;5.07;;;3.30;94.70;;;;;;4781236;30;20058;-82
2022/01/18 06:35:41;;;;;;;23.05;4.25;;;3.30;95.00;;;;;;4796143;30;20094;-82
2022/01/18 06:38:08;;;;;;;24.05;4.63;;;3.30;94.90;;;;;;4766627;29;20032;-82
2022/01/18 06:40:34;;;;;;;24.75;5.93;;;3.30;95.00;;;;;;4785845;30;20031;-82
2022/01/18 06:42:59;;;;;;;19.42;4.32;;;3.30;95.10;;;;;;4781788;30;20082;-82
2022/01/18 06:45:25;;;;;;;16.20;4.95;;;3.30;95.10;;;;;;4768027;30;20031;-82
2022/01/18 06:47:51;;;;;;;22.30;5.10;;;3.30;95.30;;;;;;4769393;30;20074;-82
2022/01/18 06:50:17;;;;;;;14.43;4.75;;;3.30;95.30;;;;;;4780337;30;20106;-82
2022/01/18 06:52:42;;;;;;;24.58;4.38;;;3.30;95.40;;;;;;4783879;30;20073;-82
2022/01/18 06:55:09;;;;;;;19.73;4.75;;;3.30;95.50;;;;;;4798796;30;20232;-83
2022/01/18 06:57:35;;;;;;;24.85;4.53;;;3.30;95.50;;;;;;4783781;30;20227;-82
2022/01/18 07:00:02;;;;;;;25.13;4.80;;;3.40;95.60;;;;;;4781794;30;20036;-83
2022/01/18 07:02:31;;;;;;;22.67;5.25;;;3.30;95.70;;;;;;4783589;30;20347;-83
2022/01/18 07:04:59;;;;;;;25.38;5.43;;;3.30;95.70;;;;;;4778447;30;20074;-83
2022/01/18 07:07:25;;;;;;;20.23;5.30;;;3.40;95.70;;;;;;4761313;30;20040;-83
2022/01/18 07:09:51;;;;;;;35.55;10.30;;;3.40;95.70;;;;;;4740987;30;20131;-83
2022/01/18 07:12:18;;;;;;;27.05;7.63;;;3.40;95.70;;;;;;4733202;30;20055;-83
2022/01/18 07:14:44;;;;;;;34.50;10.45;;;3.40;95.80;;;;;;4735587;30;20277;-83
2022/01/18 07:17:10;;;;;;;25.90;6.35;;;3.50;95.80;;;;;;4749783;30;20112;-83
2022/01/18 07:19:38;;;;;;;18.90;5.17;;;3.40;95.90;;;;;;4774995;30;20040;-83
2022/01/18 07:22:04;;;;;;;;;;;3.50;96.00;;;;;;4746666;30;20047;-83
2022/01/18 07:27:22;;;;;;;24.42;5.40;;;3.50;96.10;;;;;;4718720;30;20063;-83
2022/01/18 07:29:49;;;;;;;31.30;6.65;;;3.50;96.10;;;;;;4719045;30;20048;-83
2022/01/18 07:32:15;;;;;;;24.73;6.40;;;3.60;96.30;;;;;;4732589;30;20638;-83
2022/01/18 07:34:49;;;;;;;34.55;5.95;;;3.60;96.30;;;;;;4719608;30;20033;-83
2022/01/18 07:37:15;;;;;;;24.88;5.50;;;3.60;96.50;;;;;;4730698;30;20051;-83
2022/01/18 07:39:40;;;;;;;30.52;6.05;;;4.50;96.10;;;;;;4754450;30;20044;-82
2022/01/18 07:42:07;;;;;;;27.75;6.47;;;4.90;93.90;;;;;;4754295;30;20268;-83
2022/01/18 07:44:32;;;;;;;16.63;5.57;;;4.70;93.90;;;;;;4767891;30;20048;-83
2022/01/18 07:46:58;;;;;;;19.92;5.30;;;4.50;94.60;;;;;;4753295;30;20071;-83
2022/01/18 07:49:24;;;;;;;17.20;5.28;;;4.20;94.90;;;;;;4756967;30;20107;-82
2022/01/18 07:51:50;;;;;;;35.08;6.78;;;4.10;95.20;;;;;;4757562;30;20039;-83
2022/01/18 07:54:16;;;;;;;25.53;6.07;;;4.10;95.40;;;;;;4754979;30;20259;-83
2022/01/18 07:56:44;;;;;;;25.27;6.13;;;4.10;95.50;;;;;;4754462;30;20440;-83
2022/01/18 07:59:11;;;;;;;30.00;7.32;;;4.20;95.50;;;;;;4754619;30;20036;-82
2022/01/18 08:01:37;;;;;;;24.98;5.50;;;4.20;95.40;;;;;;4751171;30;20027;-83
2022/01/18 08:04:04;;;;;;;19.67;4.87;;;4.20;95.50;;;;;;4771982;30;20246;-83
2022/01/18 08:06:30;;;;;;;27.93;5.40;;;4.30;95.80;;;;;;4782354;30;20065;-83
2022/01/18 08:08:56;;;;;;;33.80;7.78;;;4.40;95.40;;;;;;4799222;29;20327;-82
2022/01/18 08:11:22;;;;;;;22.70;5.70;;;4.40;95.30;;;;;;4780285;30;20035;-82
2022/01/18 08:13:49;;;;;;;25.73;5.90;;;4.40;95.20;;;;;;4797061;30;20330;-82
2022/01/18 08:18:49;;;;;;;22.08;5.57;;;4.50;95.10;;;;;;4776365;30;20040;-82
2022/01/18 08:21:15;;;;;;;24.77;5.80;;;4.60;95.20;;;;;;4781885;30;20062;-82
2022/01/18 08:23:41;;;;;;;21.70;5.47;;;4.60;94.50;;;;;;4781982;30;20331;-82
2022/01/18 08:26:07;;;;;;;27.95;7.03;;;4.60;94.20;;;;;;4781771;30;20042;-82
2022/01/18 08:28:32;;;;;;;30.30;6.18;;;4.70;94.30;;;;;;4781534;30;20042;-82
2022/01/18 08:30:58;;;;;;;21.85;6.25;;;4.70;94.00;;;;;;4779847;30;20035;-82
2022/01/18 08:33:24;;;;;;;22.75;6.32;;;4.70;94.00;;;;;;4796040;30;20034;-82
2022/01/18 08:35:50;;;;;;;25.63;6.15;;;4.80;93.80;;;;;;4781971;30;20042;-82
2022/01/18 08:38:16;;;;;;;27.73;7.93;;;4.80;93.70;;;;;;4781426;30;20027;-83
2022/01/18 08:40:42;;;;;;;34.30;7.03;;;4.90;93.40;;;;;;4796645;30;20290;-82
2022/01/18 08:43:09;;;;;;;27.73;6.70;;;5.00;93.60;;;;;;4781770;30;20039;-82
2022/01/18 08:45:35;;;;;;;25.23;5.88;;;5.00;93.40;;;;;;4781515;29;20092;-82
2022/01/18 08:48:02;;;;;;;18.90;5.53;;;5.00;93.30;;;;;;4752517;30;20039;-82
2022/01/18 08:50:28;;;;;;;25.90;6.53;;;5.00;93.30;;;;;;4781865;30;20339;-82
2022/01/18 08:52:54;;;;;;;32.47;7.32;;;5.00;93.00;;;;;;4782433;30;20051;-82
2022/01/18 08:55:21;;;;;;;24.27;5.70;;;5.10;92.90;;;;;;4782239;30;20226;-82
2022/01/18 08:57:47;;;;;;;20.42;5.90;;;5.10;93.00;;;;;;4782053;30;20239;-82
2022/01/18 09:00:17;;;;;;;27.35;6.13;;;5.10;93.30;;;;;;4781270;30;20069;-82
2022/01/18 09:02:42;;;;;;;41.28;7.13;;;5.20;92.90;;;;;;4781766;30;20047;-82
2022/01/18 09:05:09;;;;;;;23.42;5.68;;;5.20;92.90;;;;;;4781236;30;20047;-82
2022/01/18 09:07:37;;;;;;;28.67;6.80;;;5.30;92.90;;;;;;4780922;30;20151;-82
2022/01/18 09:10:05;;;;;;;23.58;7.03;;;5.40;93.00;;;;;;4781552;30;20477;-82
2022/01/18 09:12:32;;;;;;;27.35;7.53;;;5.40;92.80;;;;;;4781018;30;20044;-82
2022/01/18 09:15:02;;;;;;;27.35;6.22;;;5.50;92.80;;;;;;4780883;30;20031;-82
2022/01/18 09:17:29;;;;;;;23.90;5.72;;;5.50;92.50;;;;;;4751912;30;20801;-82
2022/01/18 09:19:55;;;;;;;;;;;5.50;92.50;;;;;;4797002;30;20620;-82
2022/01/18 09:22:21;;;;;;;39.03;7.93;;;5.50;92.30;;;;;;4780919;30;19986;-81
2022/01/18 09:24:46;;;;;;;32.15;5.45;;;5.60;92.50;;;;;;4781692;30;20031;-82
2022/01/18 09:27:12;;;;;;;21.90;5.78;;;5.60;92.00;;;;;;4781466;30;20088;-82
2022/01/18 09:29:40;;;;;;;30.30;6.28;;;5.60;91.80;;;;;;4779212;30;20035;-82
2022/01/18 09:32:06;;;;;;;25.92;5.88;;;5.70;92.00;;;;;;4779328;30;20039;-82
2022/01/18 09:34:33;;;;;;;25.88;6.18;;;5.80;92.00;;;;;;4779645;30;20035;-82
2022/01/18 09:36:59;;;;;;;26.63;4.63;;;5.90;91.40;;;;;;4779864;30;20035;-82
2022/01/18 09:39:26;;;;;;;23.47;5.77;;;5.90;91.50;;;;;;4780406;30;20035;-81
2022/01/18 09:41:54;;;;;;;33.27;6.07;;;6.00;91.20;;;;;;4781242;30;20281;-81
2022/01/18 09:44:21;;;;;;;30.75;6.18;;;6.00;91.00;;;;;;4802707;29;20342;-81
2022/01/18 09:46:51;;;;;;;32.88;6.80;;;6.10;91.30;;;;;;4780729;30;20058;-82
2022/01/18 09:49:18;;;;;;;22.65;6.78;;;6.00;91.00;;;;;;4784570;30;20042;-81
2022/01/18 09:51:45;;;;;;;21.92;5.65;;;6.10;91.10;;;;;;4796136;30;20261;-82
2022/01/18 09:54:11;;;;;;;30.45;6.80;;;6.10;90.90;;;;;;4766826;30;20227;-82
2022/01/18 09:56:36;;;;;;;24.27;5.97;;;6.20;90.80;;;;;;4796629;30;20035;-82
2022/01/18 09:59:03;;;;;;;26.02;4.88;;;6.10;90.60;;;;;;4752034;30;20104;-82
2022/01/18 10:01:30;;;;;;;33.67;6.47;;;6.10;90.70;;;;;;4800278;29;20035;-82
2022/01/18 10:04:20;;;;;;;39.03;9.32;;;6.10;90.70;;;;;;4786361;29;20055;-83
2022/01/18 10:06:49;;;;;;;27.90;6.05;;;6.10;90.50;;;;;;4785200;29;20031;-82
2022/01/18 10:09:17;;;;;;;27.75;7.00;;;6.20;90.80;;;;;;4786629;29;20035;-82
2022/01/18 10:12:22;;;;;;;31.90;6.57;;;6.30;90.60;;;;;;4788906;29;20065;-82
2022/01/18 10:14:56;;;;;;;24.67;5.38;;;6.40;90.30;;;;;;4784631;29;20092;-82
2022/01/18 10:17:35;;;;;;;26.77;5.70;;;6.40;90.20;;;;;;4796929;29;20042;-82
2022/01/18 10:20:15;;;;;;;25.77;5.22;;;6.60;90.20;;;;;;4795310;29;20042;-82
2022/01/18 10:22:42;;;;;;;28.40;6.07;;;6.70;90.20;;;;;;4798126;29;20035;-82
2022/01/18 10:25:33;;;;;;;14.25;4.60;;;6.90;89.50;;;;;;4755410;30;20051;-82
2022/01/18 10:27:59;;;;;;;22.50;4.65;;;7.00;88.60;;;;;;4777210;30;20051;-82
2022/01/18 10:30:43;;;;;;;22.67;4.82;;;7.20;88.20;;;;;;4765374;30;20035;-82
2022/01/18 10:33:14;;;;;;;34.17;7.20;;;7.40;87.00;;;;;;4770792;30;20023;-82
2022/01/18 10:36:11;;;;;;;32.45;5.97;;;7.30;85.60;;;;;;4781226;30;20045;-82
2022/01/18 10:38:46;;;;;;;33.88;6.40;;;7.30;84.70;;;;;;4712021;30;20406;-82
2022/01/18 10:41:24;;;;;;;28.58;5.57;;;7.30;85.20;;;;;;4726962;30;20073;-82
2022/01/18 10:44:23;;;;;;;26.23;5.65;;;7.30;85.50;;;;;;4712346;30;20240;-82
2022/01/18 10:46:55;;;;;;;25.23;5.22;;;7.40;83.80;;;;;;4703847;30;20049;-83
2022/01/18 10:49:43;;;;;;;22.52;5.22;;;7.40;84.00;;;;;;4700364;30;20088;-83
2022/01/18 10:52:15;;;;;;;23.30;4.97;;;7.50;82.40;;;;;;4699955;30;20038;-82
2022/01/18 10:54:42;;;;;;;36.00;5.53;;;7.50;82.10;;;;;;4689394;30;20037;-82
2022/01/18 10:57:11;;;;;;;35.05;5.38;;;7.40;79.70;;;;;;4690861;30;20048;-81
2022/01/18 10:59:38;;;;;;;28.55;5.00;;;7.30;79.40;;;;;;4677752;30;20136;-82
2022/01/18 11:02:19;;;;;;;39.17;7.00;;;7.20;78.30;;;;;;4689334;30;20045;-82
2022/01/18 11:04:51;;;;;;;19.08;4.57;;;7.10;77.10;;;;;;4705569;30;20044;-82
2022/01/18 11:07:20;;;;;;;26.10;5.10;;;7.00;77.50;;;;;;4691519;30;20056;-82
2022/01/18 11:09:46;;;;;;;22.73;5.13;;;6.90;77.00;;;;;;4684986;30;20153;-83
2022/01/18 11:12:12;;;;;;;37.17;5.50;;;6.90;76.90;;;;;;4689320;30;20053;-82
2022/01/18 11:14:44;;;;;;;24.92;4.63;;;6.90;76.80;;;;;;4696097;30;20059;-83
2022/01/18 11:17:19;;;;;;;25.25;5.40;;;7.00;77.10;;;;;;4753824;30;20032;-83
2022/01/18 11:19:48;;;;;;;35.72;5.32;;;7.00;76.50;;;;;;4771868;30;20052;-83
2022/01/18 11:22:14;;;;;;;24.15;5.40;;;7.00;76.90;;;;;;4755666;30;20082;-83
2022/01/18 11:24:43;;;;;;;30.40;5.95;;;7.00;75.80;;;;;;4790212;30;20106;-83
2022/01/18 11:27:13;;;;;;;23.52;4.43;;;7.00;75.90;;;;;;4780766;30;20234;-83
2022/01/18 11:29:41;;;;;;;23.10;4.35;;;7.00;76.20;;;;;;4783231;30;20039;-83
2022/01/18 11:32:08;;;;;;;28.23;4.90;;;7.00;75.90;;;;;;4782634;29;20090;-83
2022/01/18 11:34:57;;;;;;;27.98;4.78;;;7.10;76.30;;;;;;4782947;30;20257;-83
2022/01/18 11:37:45;;;;;;;30.45;4.88;;;7.20;75.90;;;;;;4786118;30;20039;-83
2022/01/18 11:40:17;;;;;;;18.33;5.00;;;7.30;75.10;;;;;;4797542;29;20331;-82
2022/01/18 11:42:50;;;;;;;25.58;4.97;;;7.30;74.20;;;;;;4779804;30;20040;-82
2022/01/18 11:45:43;;;;;;;27.67;5.47;;;7.30;74.30;;;;;;4798429;29;20055;-83
2022/01/18 11:48:19;;;;;;;28.40;4.93;;;7.30;73.70;;;;;;4776796;30;20185;-83
2022/01/18 11:50:50;;;;;;;21.33;4.95;;;7.30;73.70;;;;;;4797238;30;20224;-83
2022/01/18 11:56:31;;;;;;;25.95;4.18;;;7.50;73.80;;;;;;4794337;30;20027;-83
2022/01/18 11:59:27;;;;;;;25.25;4.07;;;7.50;72.30;;;;;;4780546;30;20126;-83
2022/01/18 12:02:00;;;;;;;19.83;4.13;;;7.50;70.90;;;;;;4726588;30;20076;-83
2022/01/18 12:05:03;;;;;;;22.30;4.75;;;7.40;70.80;;;;;;4743006;30;20064;-83
2022/01/18 12:07:38;;;;;;;23.02;4.25;;;7.40;71.70;;;;;;4722828;30;20048;-83
2022/01/18 12:10:24;;;;;;;21.85;4.60;;;7.50;70.60;;;;;;4743202;30;20248;-83
2022/01/18 12:12:52;;;;;;;15.83;3.83;;;7.50;70.70;;;;;;4715860;30;20049;-83
2022/01/18 12:15:18;;;;;;;24.05;4.38;;;7.40;70.50;;;;;;4725489;30;20283;-83
2022/01/18 12:17:48;;;;;;;26.33;5.75;;;7.40;71.00;;;;;;4740765;30;20264;-83
2022/01/18 12:20:32;;;;;;;26.35;5.25;;;7.40;71.00;;;;;;4741095;30;20048;-83
2022/01/18 12:23:12;;;;;;;29.73;4.88;;;7.40;71.70;;;;;;4740970;30;20063;-83
2022/01/18 12:39:54;;;;;;;30.92;7.72;;;7.20;71.70;;;;;;4753302;30;20251;-83
2022/01/18 12:45:09;;;;;;;17.80;3.85;;;7.20;71.30;;;;;;4766294;30;20063;-83
2022/01/18 12:47:36;;;;;;;28.95;6.00;;;7.10;71.60;;;;;;4745201;30;20052;-83
2022/01/18 12:50:08;;;;;;;27.30;4.90;;;7.00;71.50;;;;;;4731599;30;20032;-83
2022/01/18 12:53:03;;;;;;;18.65;3.83;;;6.90;71.70;;;;;;4730470;30;20263;-83
2022/01/18 12:55:52;;;;;;;22.00;4.70;;;6.80;72.30;;;;;;4745892;30;20036;-84
2022/01/18 12:58:35;;;;;;;29.25;4.38;;;6.80;72.80;;;;;;4746349;30;20282;-84
2022/01/18 13:01:10;;;;;;;23.95;6.32;;;6.80;73.20;;;;;;4745432;30;20055;-84
2022/01/18 13:03:41;;;;;;;22.10;3.83;;;6.90;72.60;;;;;;4732836;30;20039;-83
2022/01/18 13:06:10;;;;;;;26.15;5.10;;;6.80;71.70;;;;;;4739598;30;20742;-83
2022/01/18 13:08:47;;;;;;;26.27;5.82;;;6.80;72.20;;;;;;4797147;30;20227;-83
2022/01/18 13:11:17;;;;;;;22.73;6.55;;;6.80;72.40;;;;;;4796034;29;20035;-85
2022/01/18 13:13:50;;;;;;;22.15;4.53;;;6.70;72.70;;;;;;4781109;30;20045;-84
2022/01/18 13:27:14;;;;;;;25.65;4.55;;;6.60;74.10;;;;;;4741883;30;20032;-84
2022/01/18 13:29:40;;;;;;;23.42;4.95;;;6.50;75.30;;;;;;4748550;30;20052;-84
2022/01/18 13:32:19;;;;;;;21.77;4.53;;;6.40;74.90;;;;;;4744389;30;20111;-84
2022/01/18 13:34:51;;;;;;;28.25;4.95;;;6.40;75.10;;;;;;4736732;30;20075;-84
2022/01/18 13:37:27;;;;;;;18.70;4.20;;;6.40;75.20;;;;;;4747613;30;20041;-84
2022/01/18 13:39:55;;;;;;;29.95;5.03;;;6.40;75.60;;;;;;4753245;30;20379;-84
2022/01/18 13:42:28;;;;;;;20.30;3.92;;;6.40;75.20;;;;;;4731764;30;20047;-84
2022/01/18 13:45:19;;;;;;;19.90;5.00;;;6.50;75.50;;;;;;4753695;30;20344;-84
2022/01/18 13:47:52;;;;;;;36.58;4.38;;;6.50;75.20;;;;;;4728938;30;20111;-84
2022/01/18 13:50:41;;;;;;;31.73;4.82;;;6.40;74.90;;;;;;4758240;30;20056;-84
2022/01/18 13:53:07;;;;;;;28.83;4.38;;;6.40;75.60;;;;;;4759381;30;20357;-84
2022/01/18 13:55:35;;;;;;;27.85;4.82;;;6.40;75.00;;;;;;4733012;30;20111;-84
2022/01/18 13:58:04;;;;;;;26.60;5.63;;;6.30;75.10;;;;;;4736164;30;20385;-84
2022/01/18 14:00:31;;;;;;;24.50;5.45;;;6.30;75.40;;;;;;4752353;30;20084;-84
2022/01/18 14:02:57;;;;;;;26.85;4.97;;;6.30;75.30;;;;;;4751961;29;20029;-84
2022/01/18 14:05:24;;;;;;;26.75;4.63;;;6.20;75.80;;;;;;4790608;29;20474;-84
2022/01/18 14:08:01;;;;;;;21.63;4.15;;;6.20;76.10;;;;;;4784891;30;20204;-84
2022/01/18 14:10:27;;;;;;;24.70;4.93;;;6.20;76.20;;;;;;4796899;29;20204;-84
2022/01/18 14:12:53;;;;;;;20.55;4.43;;;6.10;76.30;;;;;;4788745;29;20039;-84
2022/01/18 14:15:41;;;;;;;28.38;6.35;;;6.00;76.00;;;;;;4785533;29;20053;-84
2022/01/18 14:18:09;;;;;;;21.33;4.05;;;6.10;76.20;;;;;;4791160;29;20157;-85
2022/01/18 14:20:35;;;;;;;23.83;4.70;;;6.00;75.50;;;;;;4780475;30;20023;-84
2022/01/18 14:23:02;;;;;;;33.83;5.97;;;5.90;75.60;;;;;;4797425;29;20038;-84
2022/01/18 14:25:33;;;;;;;30.13;4.75;;;5.90;76.00;;;;;;4773393;29;20039;-84
2022/01/18 14:28:14;;;;;;;23.05;4.53;;;5.90;76.00;;;;;;4784400;29;20023;-84
2022/01/18 14:30:43;;;;;;;26.30;4.40;;;5.90;76.20;;;;;;4799781;29;20027;-84
2022/01/18 14:33:10;;;;;;;27.50;5.47;;;5.90;76.50;;;;;;4782024;30;20032;-84
2022/01/18 14:35:37;;;;;;;;;;;5.80;76.40;;;;;;4804054;29;20027;-84
2022/01/18 14:38:07;;;;;;;29.67;5.78;;;5.80;76.70;;;;;;4785232;30;19913;-84
2022/01/18 14:40:47;;;;;;;25.55;4.88;;;5.80;76.50;;;;;;4790025;30;20035;-84
2022/01/18 14:43:41;;;;;;;26.10;4.63;;;5.70;76.30;;;;;;4780396;30;20263;-84
2022/01/18 14:46:21;;;;;;;22.15;4.72;;;5.70;77.20;;;;;;4796482;30;20051;-84
2022/01/18 14:48:47;;;;;;;24.85;5.13;;;5.70;76.50;;;;;;4755155;30;20043;-84
2022/01/18 14:51:13;;;;;;;14.93;3.90;;;5.70;75.80;;;;;;4780553;30;20043;-84
2022/01/18 14:53:39;;;;;;;32.58;4.50;;;5.60;75.80;;;;;;4750024;30;20115;-84
2022/01/18 14:56:06;;;;;;;19.75;4.65;;;5.60;75.50;;;;;;4763253;30;20088;-82
2022/01/18 14:58:32;;;;;;;16.70;3.70;;;5.50;75.30;;;;;;4780159;30;20035;-84
2022/01/18 15:00:59;;;;;;;24.33;4.25;;;5.40;75.60;;;;;;4781454;30;20046;-84
2022/01/18 15:03:25;;;;;;;26.05;5.88;;;5.40;75.40;;;;;;4781010;30;20096;-84
2022/01/18 15:05:51;;;;;;;28.17;4.53;;;5.40;75.60;;;;;;4780679;30;20054;-84
2022/01/18 15:08:19;;;;;;;24.08;6.45;;;5.30;75.50;;;;;;4775285;30;20067;-84
2022/01/18 15:10:45;;;;;;;28.20;4.38;;;5.30;75.60;;;;;;4748176;30;20035;-84
2022/01/18 15:13:11;;;;;;;30.98;5.20;;;5.20;75.50;;;;;;4782137;29;20050;-84
2022/01/18 15:15:39;;;;;;;21.63;4.53;;;5.20;76.00;;;;;;4785223;29;20247;-84
2022/01/18 15:18:05;;;;;;;20.45;4.43;;;5.10;75.40;;;;;;4787111;30;20039;-84
2022/01/18 15:20:37;;;;;;;26.48;4.18;;;5.10;75.90;;;;;;4769392;29;20036;-84
2022/01/18 15:23:03;;;;;;;31.98;6.57;;;5.00;75.40;;;;;;4775404;29;20293;-84
2022/01/18 15:25:29;;;;;;;38.53;12.18;;;5.00;76.10;;;;;;4788865;29;20227;-84
2022/01/18 15:27:54;;;;;;;37.00;10.60;;;4.90;75.60;;;;;;4773487;29;20030;-84
2022/01/18 15:30:23;;;;;;;40.53;11.10;;;4.80;76.20;;;;;;4771028;29;20034;-84
2022/01/18 15:32:54;;;;;;;23.55;5.05;;;4.90;76.40;;;;;;4804654;29;20043;-84
2022/01/18 15:35:20;;;;;;;18.00;4.57;;;4.90;76.50;;;;;;4769023;29;20184;-84
2022/01/18 15:37:46;;;;;;;29.80;4.93;;;4.90;76.50;;;;;;4774143;29;20039;-84
2022/01/18 15:40:13;;;;;;;28.42;4.82;;;4.80;76.70;;;;;;4787984;29;20074;-84
2022/01/18 15:42:40;;;;;;;22.58;4.25;;;4.80;76.90;;;;;;4773917;29;20027;-84
2022/01/18 15:45:07;;;;;;;;;;;4.70;77.30;;;;;;4775952;29;20039;-84
2022/01/18 15:47:33;;;;;;;28.05;5.70;;;4.70;77.80;;;;;;4763862;30;20236;-85
2022/01/18 15:49:59;;;;;;;23.38;5.20;;;4.70;78.10;;;;;;4769477;30;20046;-84
2022/01/18 15:52:28;;;;;;;23.83;4.88;;;4.60;78.50;;;;;;4746001;30;20356;-84
2022/01/18 15:54:56;;;;;;;23.48;4.78;;;4.60;79.00;;;;;;4748209;30;20036;-84
2022/01/18 15:57:22;;;;;;;23.58;5.38;;;4.50;79.30;;;;;;4770676;30;20039;-84
2022/01/18 15:59:49;;;;;;;23.52;4.57;;;4.50;79.50;;;;;;4751088;30;20103;-84
2022/01/18 16:02:15;;;;;;;34.60;5.68;;;4.50;79.90;;;;;;4744491;30;20145;-84
2022/01/18 16:04:41;;;;;;;23.13;4.82;;;4.50;80.20;;;;;;4761382;30;20040;-84
2022/01/18 16:07:08;;;;;;;30.85;5.78;;;4.50;80.40;;;;;;4736691;30;20044;-84
2022/01/18 16:09:34;;;;;;;18.30;5.28;;;4.50;80.60;;;;;;4751357;30;20219;-84
2022/01/18 16:12:01;;;;;;;26.27;4.85;;;4.50;80.70;;;;;;4750162;30;20123;-83
2022/01/18 16:14:27;;;;;;;30.90;6.07;;;4.40;80.90;;;;;;4737189;30;20028;-84
2022/01/18 16:16:53;;;;;;;30.98;5.82;;;4.40;81.00;;;;;;4736724;30;20040;-84
2022/01/18 16:19:19;;;;;;;25.00;4.93;;;4.40;81.20;;;;;;4750831;30;20437;-84
2022/01/18 16:21:47;;;;;;;27.63;5.93;;;4.40;81.10;;;;;;4783677;30;20096;-83
2022/01/18 16:24:13;;;;;;;21.33;5.00;;;4.40;80.70;;;;;;4755550;30;20054;-84
2022/01/18 16:26:39;;;;;;;26.35;4.75;;;4.40;81.00;;;;;;4767784;30;20035;-84
2022/01/18 16:29:06;;;;;;;21.33;4.75;;;4.40;80.90;;;;;;4783400;30;20331;-84
2022/01/18 16:31:34;;;;;;;15.55;4.72;;;4.40;80.50;;;;;;4771020;30;20043;-85
2022/01/18 16:34:01;;;;;;;27.80;5.20;;;4.40;80.50;;;;;;4785549;30;20268;-84
2022/01/18 16:36:27;;;;;;;21.90;5.18;;;4.40;80.80;;;;;;4769461;29;20053;-84
2022/01/18 16:38:52;;;;;;;20.75;4.40;;;4.30;80.90;;;;;;4769321;30;20044;-84
2022/01/18 16:41:18;;;;;;;21.08;4.97;;;4.30;80.70;;;;;;4755391;30;20038;-84
2022/01/18 16:43:44;;;;;;;35.25;5.03;;;4.40;81.50;;;;;;4785323;30;20080;-84
2022/01/18 16:46:10;;;;;;;23.48;4.72;;;4.30;80.90;;;;;;4760308;29;20371;-84
2022/01/18 16:48:36;;;;;;;21.65;5.30;;;4.30;80.90;;;;;;4772238;29;20046;-84
2022/01/18 16:51:01;;;;;;;20.38;4.72;;;4.30;80.90;;;;;;4786326;29;20168;-84
2022/01/18 16:53:27;;;;;;;17.45;4.50;;;4.30;81.00;;;;;;4772797;29;20260;-83
2022/01/18 16:55:53;;;;;;;20.63;5.18;;;4.30;81.00;;;;;;4789544;29;20337;-84
2022/01/18 16:58:20;;;;;;;34.03;7.25;;;4.30;81.30;;;;;;4769206;29;20031;-84
2022/01/18 17:00:46;;;;;;;30.60;6.78;;;4.30;81.20;;;;;;4801733;29;20035;-84
2022/01/18 17:03:12;;;;;;;20.15;5.30;;;4.30;81.50;;;;;;4782632;29;20075;-84
2022/01/18 17:05:38;;;;;;;25.85;5.00;;;4.20;81.50;;;;;;4779988;29;20039;-84
2022/01/18 17:08:04;;;;;;;27.08;5.85;;;4.20;81.60;;;;;;4752356;29;20239;-84
2022/01/18 17:10:33;;;;;;;22.27;4.87;;;4.20;81.90;;;;;;4781830;29;21002;-84
2022/01/18 17:12:59;;;;;;;20.45;4.97;;;4.20;81.80;;;;;;4770448;30;20129;-84
2022/01/18 17:15:25;;;;;;;45.15;6.57;;;4.20;82.10;;;;;;4752684;29;20035;-84
2022/01/18 17:17:50;;;;;;;17.73;5.05;;;4.10;82.00;;;;;;4783111;29;20074;-83
2022/01/18 17:20:16;;;;;;;29.58;6.47;;;4.10;82.30;;;;;;4788399;29;20107;-84
2022/01/18 17:22:43;;;;;;;29.67;6.97;;;4.10;82.50;;;;;;4763798;30;20047;-84
2022/01/18 17:25:11;;;;;;;28.77;6.57;;;4.10;82.60;;;;;;4770945;29;20102;-84
2022/01/18 17:27:37;;;;;;;35.17;8.20;;;4.10;82.70;;;;;;4785883;29;20342;-84
2022/01/18 17:30:04;;;;;;;18.95;5.43;;;4.10;82.70;;;;;;4788914;29;20055;-84
2022/01/18 17:32:29;;;;;;;16.80;5.07;;;4.10;82.60;;;;;;4784485;30;20043;-84
2022/01/18 17:34:55;;;;;;;20.05;5.30;;;4.00;82.60;;;;;;4769121;29;20075;-84
2022/01/18 17:37:22;;;;;;;19.63;5.13;;;4.00;82.60;;;;;;4784574;29;20063;-84
2022/01/18 17:39:47;;;;;;;25.55;5.32;;;4.00;82.80;;;;;;4788067;29;20023;-84
2022/01/18 17:42:14;;;;;;;26.63;6.38;;;4.00;82.70;;;;;;4772560;29;20062;-84
2022/01/18 17:44:39;;;;;;;26.95;5.60;;;4.00;82.90;;;;;;4770529;29;20043;-83